createdAt,value
2023-04-14T00:01:25.919Z,11.68
2023-04-14T00:06:28.212Z,11.62
2023-04-14T00:11:27.670Z,11.89
2023-04-14T00:16:27.408Z,11.99
2023-04-14T00:21:29.006Z,11.53
2023-04-14T00:26:31.980Z,11.81
2023-04-14T00:31:31.897Z,11.83
2023-04-14T00:36:35.117Z,11.86
2023-04-14T00:41:38.124Z,11.75
2023-04-14T00:46:37.424Z,11.86
2023-04-14T00:51:42.428Z,12.00
2023-04-14T00:56:43.318Z,11.99
2023-04-14T01:01:43.062Z,11.90
2023-04-14T01:06:45.349Z,12.07
2023-04-14T01:12:15.604Z,11.58
2023-04-14T01:17:39.187Z,11.56
2023-04-14T01:22:47.256Z,11.60
2023-04-14T01:27:59.094Z,11.33
2023-04-14T01:33:04.449Z,11.35
2023-04-14T01:38:31.571Z,11.19
2023-04-14T01:43:34.271Z,11.16
2023-04-14T01:48:37.201Z,11.38
2023-04-14T01:53:40.748Z,11.47
2023-04-14T01:58:44.445Z,11.33
2023-04-14T02:03:44.818Z,10.90
2023-04-14T02:08:46.998Z,10.62
2023-04-14T02:13:47.308Z,10.47
2023-04-14T02:18:51.331Z,10.34
2023-04-14T02:23:50.347Z,10.49
2023-04-14T02:29:10.390Z,10.89
2023-04-14T02:34:21.214Z,10.61
2023-04-14T02:39:30.941Z,10.70
2023-04-14T02:44:53.596Z,11.14
2023-04-14T02:49:56.632Z,10.97
2023-04-14T02:55:00.778Z,10.68
2023-04-14T03:00:00.451Z,10.28
2023-04-14T03:05:02.109Z,10.28
2023-04-14T03:10:12.190Z,10.17
2023-04-14T03:15:13.426Z,9.92
2023-04-14T03:20:13.181Z,9.88
2023-04-14T03:25:12.711Z,10.51
2023-04-14T03:30:15.734Z,10.49
2023-04-14T03:35:24.477Z,10.06
2023-04-14T03:40:26.265Z,10.04
2023-04-14T03:45:28.865Z,9.83
2023-04-14T03:50:31.755Z,9.88
2023-04-14T03:55:32.743Z,10.04
2023-04-14T04:00:32.498Z,9.91
2023-04-14T04:05:31.664Z,10.17
2023-04-14T04:10:34.772Z,10.07
2023-04-14T04:15:34.692Z,10.05
2023-04-14T04:20:35.334Z,10.94
2023-04-14T04:25:42.544Z,10.45
2023-04-14T04:31:03.800Z,10.31
2023-04-14T04:36:04.932Z,10.19
2023-04-14T04:41:22.333Z,10.22
2023-04-14T04:46:45.319Z,10.33
2023-04-14T04:51:49.381Z,10.26
2023-04-14T04:56:50.836Z,10.51
2023-04-14T05:01:52.192Z,10.41
2023-04-14T05:06:52.344Z,10.65
2023-04-14T05:11:52.576Z,10.93
2023-04-14T05:16:54.654Z,10.74
2023-04-14T05:21:56.038Z,11.20
2023-04-14T05:27:12.482Z,11.04
2023-04-14T05:32:15.825Z,11.13
2023-04-14T05:37:17.308Z,11.30
2023-04-14T05:42:18.823Z,11.21
2023-04-14T05:47:18.139Z,11.34
2023-04-14T05:52:17.400Z,11.49
2023-04-14T05:57:59.882Z,11.66
2023-04-14T06:02:58.972Z,11.97
2023-04-14T06:08:02.291Z,12.12
2023-04-14T06:13:03.287Z,12.12
2023-04-14T06:18:06.030Z,12.13
2023-04-14T06:23:10.939Z,12.45
2023-04-14T06:28:19.016Z,12.27
2023-04-14T06:33:18.054Z,12.17
2023-04-14T06:43:39.881Z,12.76
2023-04-14T06:48:41.524Z,12.90
2023-04-14T06:53:42.130Z,13.29
2023-04-14T06:58:43.263Z,13.95
2023-04-14T07:03:54.245Z,14.03
2023-04-14T07:08:58.032Z,14.51
2023-04-14T07:14:00.526Z,14.98
2023-04-14T07:18:59.671Z,15.32
2023-04-14T07:23:58.775Z,15.39
2023-04-14T07:29:01.289Z,15.50
2023-04-14T07:34:00.769Z,15.46
2023-04-14T07:39:02.863Z,15.68
2023-04-14T07:44:01.617Z,15.39
2023-04-14T07:49:01.307Z,15.49
2023-04-14T07:54:01.093Z,15.89
2023-04-14T07:59:02.699Z,16.15
2023-04-14T08:04:08.836Z,16.60
2023-04-14T08:09:10.125Z,16.86
2023-04-14T08:20:40.421Z,17.73
2023-04-14T08:25:42.822Z,17.97
2023-04-14T08:30:52.224Z,17.74
2023-04-14T08:35:57.905Z,17.70
2023-04-14T08:41:04.699Z,17.70
2023-04-14T08:46:07.507Z,17.86
2023-04-14T08:51:34.489Z,18.36
2023-04-14T08:56:39.524Z,18.41
2023-04-14T09:01:39.454Z,18.66
2023-04-14T09:06:38.873Z,18.93
2023-04-14T09:11:41.333Z,19.34
2023-04-14T09:16:40.414Z,19.72
2023-04-14T09:21:52.950Z,20.36
2023-04-14T09:27:05.649Z,20.50
2023-04-14T09:32:05.117Z,20.70
2023-04-14T09:37:10.402Z,20.88
2023-04-14T09:42:08.914Z,21.11
2023-04-14T09:47:10.082Z,21.08
2023-04-14T09:52:10.041Z,21.54
2023-04-14T09:57:08.880Z,21.69
2023-04-14T10:02:09.543Z,22.19
2023-04-14T10:07:13.736Z,22.05
2023-04-14T10:12:15.814Z,22.38
2023-04-14T10:17:14.934Z,22.59
2023-04-14T10:22:14.630Z,22.93
2023-04-14T10:27:13.827Z,22.78
2023-04-14T10:32:16.326Z,22.59
2023-04-14T10:37:17.008Z,22.66
2023-04-14T10:42:16.369Z,22.89
2023-04-14T10:47:25.568Z,23.27
2023-04-14T10:52:29.291Z,23.45
2023-04-14T10:57:32.193Z,23.78
2023-04-14T11:02:36.054Z,24.17
2023-04-14T11:07:54.756Z,24.50
2023-04-14T11:13:01.094Z,24.40
2023-04-14T11:18:16.545Z,24.43
2023-04-14T11:23:17.659Z,24.49
2023-04-14T11:28:31.900Z,24.69
2023-04-14T11:33:34.640Z,24.69
2023-04-14T11:38:41.213Z,24.91
2023-04-14T11:43:46.904Z,25.22
2023-04-14T11:48:46.670Z,25.33
2023-04-14T11:53:45.702Z,25.38
2023-04-14T11:58:44.491Z,25.59
2023-04-14T12:03:56.214Z,25.14
2023-04-14T12:09:05.106Z,24.84
2023-04-14T12:14:06.364Z,25.05
2023-04-14T12:19:05.765Z,24.68
2023-04-14T12:24:06.088Z,24.63
2023-04-14T12:29:08.400Z,24.10
2023-04-14T12:34:07.202Z,23.73
2023-04-14T12:39:16.605Z,23.34
2023-04-14T12:44:21.041Z,22.74
2023-04-14T12:49:41.216Z,22.37
2023-04-14T12:54:54.046Z,22.33
2023-04-14T12:59:54.500Z,22.55
2023-04-14T13:04:57.098Z,22.56
2023-04-14T13:09:58.879Z,23.28
2023-04-14T13:16:21.140Z,23.38
2023-04-14T13:21:04.566Z,23.50
2023-04-14T13:26:04.606Z,23.36
2023-04-14T13:38:19.383Z,23.38
2023-04-14T13:43:19.030Z,23.67
2023-04-14T13:48:21.636Z,25.13
2023-04-14T13:53:22.505Z,25.53
2023-04-14T13:58:23.433Z,26.04
2023-04-14T14:03:22.823Z,26.86
2023-04-14T14:08:28.419Z,27.69
2023-04-14T14:13:35.657Z,27.58
2023-04-14T14:18:36.614Z,27.62
2023-04-14T14:23:38.671Z,26.63
2023-04-14T14:28:43.534Z,25.81
2023-04-14T14:33:43.442Z,25.26
2023-04-14T14:38:44.851Z,24.48
2023-04-14T14:43:43.808Z,24.27
2023-04-14T14:48:44.195Z,23.49
2023-04-14T14:53:45.409Z,23.61
2023-04-14T14:58:52.196Z,22.84
2023-04-14T15:03:54.649Z,21.96
2023-04-14T15:08:56.164Z,21.15
2023-04-14T15:14:00.468Z,20.90
2023-04-14T15:19:03.714Z,20.67
2023-04-14T15:24:03.492Z,20.64
2023-04-14T15:29:02.710Z,20.30
2023-04-14T15:34:12.759Z,20.02
2023-04-14T15:39:16.157Z,19.77
2023-04-14T15:44:14.896Z,19.66
2023-04-14T15:49:16.640Z,19.50
2023-04-14T15:54:39.138Z,19.39
2023-04-14T15:59:45.209Z,19.26
2023-04-14T16:05:08.435Z,19.32
2023-04-14T16:10:33.903Z,19.02
2023-04-14T16:15:43.502Z,18.81
2023-04-14T16:20:43.929Z,17.61
2023-04-14T16:25:58.064Z,15.31
2023-04-14T16:31:00.028Z,14.82
2023-04-14T16:36:08.974Z,14.82
2023-04-14T16:41:10.485Z,14.92
2023-04-14T16:46:15.030Z,15.04
2023-04-14T16:51:16.660Z,15.12
2023-04-14T16:56:25.286Z,15.47
2023-04-14T17:01:30.975Z,15.52
2023-04-14T17:06:34.085Z,15.65
2023-04-14T17:11:35.839Z,15.76
2023-04-14T17:16:37.863Z,15.65
2023-04-14T17:21:38.619Z,15.54
2023-04-14T17:26:40.567Z,15.47
2023-04-14T17:31:41.840Z,15.38
2023-04-14T17:36:46.936Z,15.30
2023-04-14T17:41:46.421Z,15.32
2023-04-14T17:46:48.283Z,15.39
2023-04-14T17:51:46.872Z,15.33
2023-04-14T17:56:48.500Z,15.36
2023-04-14T18:01:50.483Z,15.42
2023-04-14T18:06:53.344Z,15.46
2023-04-14T18:11:54.795Z,15.33
2023-04-14T18:16:59.926Z,15.39
2023-04-14T18:21:58.658Z,15.52
2023-04-14T18:26:59.772Z,15.54
2023-04-14T18:32:01.120Z,15.34
2023-04-14T18:37:04.146Z,15.16
2023-04-14T18:42:07.341Z,15.22
2023-04-14T18:47:11.485Z,15.45
2023-04-14T18:52:10.076Z,15.38
2023-04-14T18:57:13.080Z,15.07
2023-04-14T19:02:13.995Z,15.14
2023-04-14T19:07:14.182Z,15.55
2023-04-14T19:12:25.366Z,15.69
2023-04-14T19:17:38.316Z,15.75
2023-04-14T19:22:40.586Z,15.60
2023-04-14T19:27:43.429Z,15.47
2023-04-14T19:32:44.956Z,15.21
2023-04-14T19:37:47.202Z,15.10
2023-04-14T19:42:47.186Z,14.86
2023-04-14T19:47:52.145Z,14.96
2023-04-14T19:52:57.161Z,14.38
2023-04-14T19:57:59.052Z,14.61
2023-04-14T20:03:04.102Z,14.48
2023-04-14T20:08:03.832Z,14.45
2023-04-14T20:13:04.592Z,14.47
2023-04-14T20:18:04.823Z,14.73
2023-04-14T20:23:07.413Z,14.59
2023-04-14T20:28:17.072Z,14.43
2023-04-14T20:33:19.586Z,14.10
2023-04-14T20:38:19.300Z,14.50
2023-04-14T20:43:18.408Z,14.58
2023-04-14T20:48:20.789Z,14.21
2023-04-14T20:53:23.093Z,14.57
2023-04-14T20:58:27.320Z,14.98
2023-04-14T21:04:22.900Z,14.85
2023-04-14T21:09:38.868Z,14.54
2023-04-14T21:15:31.420Z,14.34
2023-04-14T21:20:09.086Z,14.60
2023-04-14T21:25:08.755Z,14.34
2023-04-14T21:30:07.411Z,14.68
2023-04-14T21:35:14.308Z,14.14
2023-04-14T21:40:15.955Z,14.24
2023-04-14T21:45:16.742Z,14.53
2023-04-14T21:50:17.529Z,14.17
2023-04-14T21:55:18.103Z,14.18
2023-04-14T22:00:18.728Z,14.36
2023-04-14T22:05:20.418Z,14.26
2023-04-14T22:10:19.126Z,14.71
2023-04-14T22:15:21.100Z,14.77
2023-04-14T22:20:23.460Z,14.78
2023-04-14T22:25:23.646Z,13.48
2023-04-14T22:30:25.558Z,13.54
2023-04-14T22:35:24.922Z,13.92
2023-04-14T22:40:27.730Z,14.18
2023-04-14T22:45:25.540Z,14.42
2023-04-14T22:50:25.756Z,14.65
2023-04-14T22:55:28.233Z,14.30
2023-04-14T23:00:29.906Z,13.99
2023-04-14T23:05:28.753Z,14.26
2023-04-14T23:10:31.107Z,14.31
2023-04-14T23:15:29.384Z,14.37
2023-04-14T23:20:30.927Z,13.93
2023-04-14T23:25:33.525Z,14.20
2023-04-14T23:30:32.773Z,14.36
2023-04-14T23:35:36.040Z,14.18
2023-04-14T23:40:34.857Z,14.23
2023-04-14T23:45:37.999Z,14.28
2023-04-14T23:51:00.612Z,14.42
2023-04-14T23:56:08.797Z,14.20
